Time;durP1;ratioP1;P1;durP2;ratioP2;P2;SDS_P1;SDS_P2;PMS_P1;PMS_P2;Temp;Humidity;BMP_temperature;BMP_pressure;BME280_temperature;BME280_humidity;BME280_pressure;Samples;Min_cycle;Max_cycle;Signal;HPM_P1;HPM_P2
2024/01/07 00:01:00;;;;;;;0.00;0.00;;;;;;;10.61;63.10;98800.84;5068015;28;20485;-69
2024/01/07 00:03:26;;;;;;;0.03;0.00;;;;;;;10.75;65.77;98793.97;5066929;28;20028;-70
2024/01/07 00:05:51;;;;;;;0.00;0.00;;;;;;;10.82;63.30;98816.47;5070619;28;20436;-69
2024/01/07 00:08:16;;;;;;;0.00;0.00;;;;;;;10.83;64.37;98810.28;5069965;28;20181;-69
2024/01/07 00:10:42;;;;;;;0.00;0.00;;;;;;;10.78;64.38;98797.00;5066362;28;20032;-70
2024/01/07 00:13:07;;;;;;;0.10;0.00;;;;;;;10.71;66.76;98803.94;5066467;28;20036;-69
2024/01/07 00:15:33;;;;;;;1.00;0.00;;;;;;;10.59;64.69;98801.00;5067661;28;20040;-69
2024/01/07 00:17:58;;;;;;;0.00;0.00;;;;;;;10.61;69.54;98799.03;5070308;28;20110;-69
2024/01/07 00:20:24;;;;;;;0.00;0.00;;;;;;;10.56;65.30;98803.19;5065374;28;20056;-69
2024/01/07 00:22:49;;;;;;;0.00;0.00;;;;;;;10.54;66.61;98798.16;5069999;28;20494;-69
2024/01/07 00:25:15;;;;;;;0.00;0.00;;;;;;;10.81;61.13;98801.03;5070228;28;20040;-69
2024/01/07 00:27:40;;;;;;;0.00;0.00;;;;;;;11.10;63.77;98794.88;5075076;28;20480;-69
2024/01/07 00:30:06;;;;;;;0.25;0.00;;;;;;;10.98;65.71;98818.81;5069279;28;20566;-69
2024/01/07 00:32:31;;;;;;;0.00;0.00;;;;;;;10.73;66.57;98807.16;5069387;28;20063;-70
2024/01/07 00:34:57;;;;;;;0.00;0.00;;;;;;;10.63;71.23;98822.28;5070478;28;20024;-69
2024/01/07 00:37:22;;;;;;;0.00;0.00;;;;;;;10.43;75.10;98816.03;5073825;28;20032;-69
2024/01/07 00:39:48;;;;;;;0.30;0.00;;;;;;;10.09;78.49;98847.84;5070188;28;20082;-69
2024/01/07 00:42:13;;;;;;;0.00;0.00;;;;;;;9.84;80.03;98842.13;5069669;28;20036;-69
2024/01/07 00:44:39;;;;;;;0.00;0.00;;;;;;;9.61;82.68;98843.00;5069434;28;20362;-69
2024/01/07 00:47:04;;;;;;;0.20;0.00;;;;;;;9.38;84.53;98839.66;5073451;28;20454;-69
2024/01/07 00:49:30;;;;;;;0.20;0.00;;;;;;;9.10;86.90;98838.59;5071550;28;20036;-69
2024/01/07 00:51:55;;;;;;;0.00;0.00;;;;;;;9.17;81.24;98852.50;5062021;28;20115;-69
2024/01/07 00:54:21;;;;;;;0.00;0.00;;;;;;;9.09;86.80;98848.16;5070133;28;20123;-69
2024/01/07 00:56:46;;;;;;;0.00;0.00;;;;;;;8.92;86.13;98852.69;5066570;28;20098;-69
2024/01/07 00:59:12;;;;;;;0.10;0.00;;;;;;;9.06;84.00;98860.69;5069888;28;20044;-69
2024/01/07 01:01:37;;;;;;;0.10;0.00;;;;;;;9.12;79.35;98863.41;5072999;28;20044;-69
2024/01/07 01:04:03;;;;;;;0.35;0.00;;;;;;;9.46;80.00;98869.94;5069982;28;20025;-69
2024/01/07 01:06:28;;;;;;;0.00;0.00;;;;;;;9.38;81.45;98865.66;5070028;28;20036;-69
2024/01/07 01:08:54;;;;;;;0.20;0.00;;;;;;;9.31;82.71;98877.72;5071556;28;20082;-69
2024/01/07 01:11:19;;;;;;;0.00;0.00;;;;;;;9.19;82.14;98873.91;5070103;28;20074;-69
2024/01/07 01:13:44;;;;;;;0.10;0.00;;;;;;;8.97;86.10;98883.34;5065888;28;20029;-69
2024/01/07 01:16:10;;;;;;;0.00;0.00;;;;;;;8.83;87.56;98869.31;5068689;28;20032;-69
2024/01/07 01:18:35;;;;;;;0.30;0.00;;;;;;;8.87;85.07;98864.56;5068788;28;20046;-69
2024/01/07 01:21:01;;;;;;;1.05;0.00;;;;;;;8.91;80.21;98871.84;5069565;28;20027;-69
2024/01/07 01:23:26;;;;;;;0.13;0.00;;;;;;;9.15;79.50;98870.03;5067890;28;20029;-69
2024/01/07 01:25:51;;;;;;;0.00;0.00;;;;;;;9.35;76.90;98879.00;5069612;28;20067;-69
2024/01/07 01:28:17;;;;;;;0.20;0.00;;;;;;;9.32;79.40;98885.34;5068982;28;20045;-69
2024/01/07 01:30:42;;;;;;;0.00;0.00;;;;;;;9.24;81.75;98874.22;5066790;28;20036;-69
2024/01/07 01:33:08;;;;;;;0.13;0.00;;;;;;;9.08;82.40;98882.91;5069295;28;20102;-69
2024/01/07 01:35:33;;;;;;;0.00;0.00;;;;;;;8.98;84.86;98877.13;5068248;28;20052;-69
2024/01/07 01:37:59;;;;;;;0.00;0.00;;;;;;;8.81;81.62;98873.84;5068958;28;20032;-69
2024/01/07 01:40:24;;;;;;;0.00;0.00;;;;;;;8.82;85.92;98872.06;5066382;28;20077;-69
2024/01/07 01:42:50;;;;;;;0.00;0.00;;;;;;;8.76;81.53;98870.16;5069395;28;20064;-69
2024/01/07 01:45:15;;;;;;;0.00;0.00;;;;;;;9.08;78.32;98866.53;5067763;28;20040;-70
2024/01/07 01:47:41;;;;;;;0.00;0.00;;;;;;;9.13;81.02;98872.00;5066003;28;20028;-69
2024/01/07 01:50:07;;;;;;;0.00;0.00;;;;;;;9.02;84.08;98867.22;5068874;28;21187;-69
2024/01/07 01:52:34;;;;;;;0.00;0.00;;;;;;;8.76;87.49;98873.56;5067076;28;20085;-69
2024/01/07 01:55:00;;;;;;;0.80;0.00;;;;;;;8.59;89.20;98878.03;5064908;28;20056;-69
2024/01/07 01:57:33;;;;;;;0.00;0.00;;;;;;;8.49;89.84;98869.66;5067834;28;20105;-69
2024/01/07 02:00:03;;;;;;;0.00;0.00;;;;;;;8.64;84.76;98872.31;5066431;28;20041;-69
2024/01/07 02:02:31;;;;;;;0.00;0.00;;;;;;;8.73;83.88;98868.72;5070836;28;20028;-69
2024/01/07 02:04:57;;;;;;;0.00;0.00;;;;;;;8.81;83.67;98866.06;5068479;28;20021;-69
2024/01/07 02:07:24;;;;;;;0.00;0.00;;;;;;;8.70;86.03;98863.84;5067953;28;20401;-69
2024/01/07 02:09:49;;;;;;;0.00;0.00;;;;;;;8.60;87.37;98865.84;5068538;28;20170;-69
2024/01/07 02:12:15;;;;;;;0.00;0.00;;;;;;;8.32;91.25;98875.88;5066590;28;20123;-69
2024/01/07 02:14:40;;;;;;;0.00;0.00;;;;;;;8.22;93.00;98870.88;5065780;28;20028;-69
2024/01/07 02:17:06;;;;;;;0.65;0.00;;;;;;;8.05;96.43;98874.50;5068758;28;20072;-69
2024/01/07 02:19:32;;;;;;;0.00;0.00;;;;;;;7.86;95.59;98874.88;5068247;28;20032;-69
2024/01/07 02:21:57;;;;;;;0.00;0.00;;;;;;;8.11;90.39;98867.81;5067297;28;20035;-69
2024/01/07 02:24:22;;;;;;;0.00;0.00;;;;;;;8.08;88.66;98875.94;5068433;28;20067;-69
2024/01/07 02:26:48;;;;;;;0.00;0.00;;;;;;;8.17;87.05;98870.56;5070640;28;20044;-69
2024/01/07 02:29:13;;;;;;;0.47;0.00;;;;;;;8.07;91.09;98874.31;5068414;28;20220;-69
2024/01/07 02:31:39;;;;;;;0.00;0.00;;;;;;;7.72;97.60;98860.81;5065249;28;20074;-69
2024/01/07 02:34:04;;;;;;;0.10;0.00;;;;;;;7.44;100.00;98877.69;5068009;28;20044;-69
2024/01/07 02:36:30;;;;;;;0.00;0.00;;;;;;;7.27;100.00;98877.69;5066728;28;20077;-69
2024/01/07 02:38:55;;;;;;;0.00;0.00;;;;;;;7.49;95.20;98888.41;5068375;28;20031;-68
2024/01/07 02:41:25;;;;;;;0.00;0.00;;;;;;;7.36;95.64;98873.31;5069578;28;20478;-69
2024/01/07 02:43:50;;;;;;;0.00;0.00;;;;;;;7.34;95.37;98875.28;5065608;28;20032;-69
2024/01/07 02:46:16;;;;;;;0.00;0.00;;;;;;;7.27;95.42;98874.28;5067793;28;20036;-70
2024/01/07 02:48:41;;;;;;;0.00;0.00;;;;;;;7.34;93.90;98864.91;5066514;28;20068;-71
2024/01/07 02:51:08;;;;;;;0.10;0.00;;;;;;;7.40;93.68;98864.25;5070532;28;20024;-70
2024/01/07 02:53:34;;;;;;;0.00;0.00;;;;;;;7.40;92.83;98859.09;5066187;28;20067;-70
2024/01/07 02:55:59;;;;;;;0.20;0.00;;;;;;;7.36;95.08;98870.75;5067881;28;20036;-70
2024/01/07 02:58:25;;;;;;;2.88;0.25;;;;;;;7.36;95.04;98862.16;5067367;28;20117;-70
2024/01/07 03:00:50;;;;;;;0.10;0.00;;;;;;;7.40;92.53;98874.63;5068043;28;20032;-70
2024/01/07 03:03:16;;;;;;;0.00;0.00;;;;;;;7.52;91.76;98862.97;5068061;28;20097;-70
2024/01/07 03:05:41;;;;;;;0.00;0.00;;;;;;;7.58;90.54;98870.06;5065949;28;23088;-70
2024/01/07 03:08:07;;;;;;;0.00;0.00;;;;;;;7.59;89.30;98853.53;5068922;28;20031;-70
2024/01/07 03:10:33;;;;;;;0.00;0.00;;;;;;;7.93;85.27;98855.09;5067682;28;20032;-70
2024/01/07 03:13:00;;;;;;;0.00;0.00;;;;;;;8.07;84.27;98861.34;5064208;28;20033;-70
2024/01/07 03:15:25;;;;;;;0.00;0.00;;;;;;;7.95;85.75;98853.16;5067179;28;20432;-70
2024/01/07 03:17:51;;;;;;;0.00;0.00;;;;;;;8.03;84.44;98858.31;5068519;28;20029;-70
2024/01/07 03:20:16;;;;;;;0.00;0.00;;;;;;;8.06;84.46;98859.72;5067922;28;20066;-70
2024/01/07 03:22:42;;;;;;;0.00;0.00;;;;;;;8.18;83.28;98866.19;5071138;28;20036;-70
2024/01/07 03:25:07;;;;;;;0.00;0.00;;;;;;;8.18;84.13;98869.59;5067695;28;20050;-70
2024/01/07 03:27:33;;;;;;;0.00;0.00;;;;;;;8.25;83.34;98854.97;5067637;28;20081;-70
2024/01/07 03:29:58;;;;;;;0.00;0.00;;;;;;;8.21;83.72;98851.09;5068948;28;20331;-70
2024/01/07 03:32:24;;;;;;;0.00;0.00;;;;;;;8.22;82.27;98860.50;5070771;28;20414;-70
2024/01/07 03:34:49;;;;;;;0.00;0.00;;;;;;;8.26;83.81;98856.59;5074622;28;20466;-70
2024/01/07 03:37:15;;;;;;;0.00;0.00;;;;;;;8.18;85.14;98869.59;5074108;28;20054;-70
2024/01/07 03:39:41;;;;;;;0.00;0.00;;;;;;;8.31;83.40;98854.31;5070392;28;20562;-70
2024/01/07 03:42:11;;;;;;;1.25;0.00;;;;;;;8.40;82.21;98849.09;5074162;28;20031;-70
2024/01/07 03:44:40;;;;;;;0.00;0.00;;;;;;;8.39;82.74;98861.28;5070875;28;20032;-70
2024/01/07 03:47:06;;;;;;;0.00;0.00;;;;;;;8.41;82.37;98858.50;5071185;28;20020;-70
2024/01/07 03:49:31;;;;;;;0.00;0.00;;;;;;;8.26;83.21;98866.97;5074094;28;20056;-70
2024/01/07 03:51:57;;;;;;;0.00;0.00;;;;;;;8.32;82.97;98861.13;5071137;28;20086;-70
2024/01/07 03:54:22;;;;;;;0.00;0.00;;;;;;;8.29;83.63;98852.84;5069298;28;20036;-70
2024/01/07 03:56:48;;;;;;;0.00;0.00;;;;;;;8.22;83.46;98870.06;5070461;28;20032;-70
2024/01/07 03:59:13;;;;;;;0.05;0.00;;;;;;;8.30;83.88;98857.88;5071185;28;20036;-70
2024/01/07 04:01:39;;;;;;;0.00;0.00;;;;;;;8.45;81.25;98857.19;5069824;28;20042;-70
2024/01/07 04:04:04;;;;;;;0.00;0.00;;;;;;;8.57;81.08;98856.63;5070258;28;20020;-70
2024/01/07 04:06:30;;;;;;;0.00;0.00;;;;;;;8.62;80.14;98856.09;5069547;28;20075;-70
2024/01/07 04:08:55;;;;;;;0.00;0.00;;;;;;;8.47;80.95;98869.03;5070891;28;20024;-70
2024/01/07 04:11:21;;;;;;;0.00;0.00;;;;;;;8.49;82.01;98861.06;5070562;28;20044;-70
2024/01/07 04:13:46;;;;;;;0.00;0.00;;;;;;;8.40;81.72;98859.50;5067409;28;20083;-70
2024/01/07 04:16:19;;;;;;;0.00;0.00;;;;;;;8.46;81.94;98862.22;5069889;28;20090;-70
2024/01/07 04:18:45;;;;;;;0.00;0.00;;;;;;;8.49;82.21;98861.06;5070094;28;20374;-71
2024/01/07 04:21:11;;;;;;;0.00;0.00;;;;;;;8.46;80.63;98866.59;5070550;28;20484;-70
2024/01/07 04:23:36;;;;;;;0.00;0.00;;;;;;;8.52;79.85;98858.91;5071302;28;20080;-70
2024/01/07 04:26:01;;;;;;;0.00;0.00;;;;;;;8.49;79.83;98861.06;5070440;28;20036;-70
2024/01/07 04:28:27;;;;;;;0.00;0.00;;;;;;;8.47;80.46;98863.03;5068687;28;20024;-70
2024/01/07 04:30:52;;;;;;;0.10;0.00;;;;;;;8.47;81.02;98855.25;5070755;28;20070;-70
2024/01/07 04:33:18;;;;;;;0.00;0.00;;;;;;;8.48;80.77;98854.25;5070063;28;20131;-70
2024/01/07 04:35:44;;;;;;;0.00;0.00;;;;;;;8.49;81.59;98854.09;5069848;28;20048;-70
2024/01/07 04:38:10;;;;;;;0.00;0.00;;;;;;;8.41;81.67;98858.50;5069233;28;20039;-70
2024/01/07 04:40:35;;;;;;;0.00;0.00;;;;;;;8.52;77.34;98879.69;5068150;28;20452;-70
2024/01/07 04:43:00;;;;;;;0.00;0.00;;;;;;;8.77;79.08;98849.22;5068385;28;20040;-70
2024/01/07 04:45:26;;;;;;;0.00;0.00;;;;;;;8.80;79.53;98851.47;5066740;28;20063;-70
2024/01/07 04:47:51;;;;;;;0.00;0.00;;;;;;;8.81;79.20;98860.88;5069242;28;20400;-70
2024/01/07 04:50:19;;;;;;;0.00;0.00;;;;;;;8.71;79.65;98854.28;5069610;28;20040;-70
2024/01/07 04:52:46;;;;;;;0.00;0.00;;;;;;;8.57;80.23;98861.00;5068565;28;20079;-70
2024/01/07 04:55:11;;;;;;;0.00;0.00;;;;;;;8.69;79.81;98864.84;5069591;28;20107;-70
2024/01/07 04:57:37;;;;;;;0.00;0.00;;;;;;;8.72;80.04;98872.28;5070893;28;20107;-70
2024/01/07 05:00:06;;;;;;;0.00;0.00;;;;;;;8.63;79.40;98884.50;5070110;28;20032;-70
2024/01/07 05:02:31;;;;;;;0.00;0.00;;;;;;;8.61;81.88;98854.50;5067603;28;20111;-71
2024/01/07 05:04:57;;;;;;;0.00;0.00;;;;;;;8.68;80.10;98868.41;5070221;28;20560;-70
2024/01/07 05:07:22;;;;;;;0.00;0.00;;;;;;;8.72;79.38;98867.09;5069282;28;20516;-70
2024/01/07 05:09:48;;;;;;;0.20;0.00;;;;;;;8.68;81.70;98871.00;5069569;28;20477;-70
2024/01/07 05:12:13;;;;;;;0.00;0.00;;;;;;;8.68;79.18;98873.59;5070994;28;20043;-69
2024/01/07 05:14:38;;;;;;;0.00;0.00;;;;;;;8.81;80.82;98868.66;5068414;28;20035;-69
2024/01/07 05:17:04;;;;;;;0.00;0.00;;;;;;;8.79;79.59;98881.00;5067087;28;20081;-69
2024/01/07 05:19:30;;;;;;;0.00;0.00;;;;;;;8.82;79.51;98888.47;5069969;28;20028;-69
2024/01/07 05:21:56;;;;;;;0.00;0.00;;;;;;;8.72;82.33;98895.66;5069551;28;20024;-69
2024/01/07 05:24:21;;;;;;;0.00;0.00;;;;;;;8.92;77.13;98878.66;5068147;28;20553;-69
2024/01/07 05:26:47;;;;;;;0.15;0.00;;;;;;;9.04;76.87;98876.44;5068392;28;20115;-69
2024/01/07 05:29:12;;;;;;;0.20;0.00;;;;;;;9.20;74.44;98888.53;5071722;28;20160;-69
2024/01/07 05:31:41;;;;;;;0.00;0.00;;;;;;;9.20;75.95;98880.72;5068289;28;20032;-69
2024/01/07 05:34:06;;;;;;;0.00;0.00;;;;;;;9.17;75.22;98892.28;5066595;28;20044;-69
2024/01/07 05:36:32;;;;;;;0.00;0.00;;;;;;;9.10;76.95;98890.53;5067726;28;20074;-69
2024/01/07 05:38:57;;;;;;;0.25;0.00;;;;;;;8.97;77.24;98891.13;5066833;28;20468;-69
2024/01/07 05:41:22;;;;;;;0.00;0.00;;;;;;;8.81;77.28;98892.03;5068518;28;20371;-69
2024/01/07 05:43:48;;;;;;;0.00;0.00;;;;;;;8.77;81.42;98880.38;5069386;28;20028;-69
2024/01/07 05:46:14;;;;;;;0.00;0.00;;;;;;;8.73;80.33;98888.66;5068740;28;20439;-69
2024/01/07 05:48:47;;;;;;;0.00;0.00;;;;;;;8.83;79.55;98897.88;5068191;28;20036;-69
2024/01/07 05:51:14;;;;;;;0.00;0.00;;;;;;;8.98;81.08;98890.94;5067398;28;20043;-69
2024/01/07 05:53:40;;;;;;;0.00;0.00;;;;;;;8.98;78.98;98890.94;5068061;28;20433;-70
2024/01/07 05:56:06;;;;;;;0.05;0.00;;;;;;;8.92;79.38;98898.63;5068683;28;20104;-69
2024/01/07 05:58:31;;;;;;;0.00;0.00;;;;;;;9.07;76.03;98885.69;5067262;28;20113;-69
2024/01/07 06:00:57;;;;;;;0.00;0.00;;;;;;;9.11;79.04;98887.78;5067616;28;20445;-69
2024/01/07 06:03:22;;;;;;;1.10;0.00;;;;;;;8.98;78.11;98898.72;5068852;28;20523;-69
2024/01/07 06:05:48;;;;;;;0.00;0.00;;;;;;;8.99;77.18;98889.16;5065981;28;20035;-69
2024/01/07 06:08:13;;;;;;;0.00;0.00;;;;;;;9.03;77.37;98885.22;5068447;28;20032;-69
2024/01/07 06:10:39;;;;;;;0.00;0.00;;;;;;;9.03;78.34;98898.22;5066688;28;20024;-69
2024/01/07 06:13:05;;;;;;;0.00;0.00;;;;;;;9.01;78.23;98896.78;5068402;28;20470;-69
2024/01/07 06:15:30;;;;;;;0.00;0.00;;;;;;;8.98;78.06;98888.34;5066639;28;20072;-69
2024/01/07 06:17:56;;;;;;;0.00;0.00;;;;;;;8.88;78.20;98892.16;5068831;28;20033;-69
2024/01/07 06:20:21;;;;;;;0.00;0.00;;;;;;;8.87;78.23;98899.16;5068689;28;20043;-70
2024/01/07 06:22:47;;;;;;;0.00;0.00;;;;;;;8.83;77.94;98884.88;5067462;28;20029;-69
2024/01/07 06:25:12;;;;;;;0.00;0.00;;;;;;;8.88;76.54;98897.34;5068091;28;20466;-69
2024/01/07 06:27:41;;;;;;;0.00;0.00;;;;;;;8.82;79.06;98888.47;5067484;28;20040;-69
2024/01/07 06:30:07;;;;;;;0.00;0.00;;;;;;;8.95;73.67;98896.50;5069059;28;20432;-69
2024/01/07 06:32:33;;;;;;;0.13;0.00;;;;;;;9.18;77.12;98893.09;5068545;28;20131;-69
2024/01/07 06:34:58;;;;;;;0.00;0.00;;;;;;;9.27;73.33;98900.66;5067101;28;20044;-69
2024/01/07 06:37:24;;;;;;;0.10;0.00;;;;;;;9.31;74.12;98914.91;5067683;28;20237;-69
2024/01/07 06:39:49;;;;;;;0.00;0.00;;;;;;;9.32;73.90;98903.53;5066001;28;20032;-69
2024/01/07 06:42:15;;;;;;;0.75;0.00;;;;;;;9.28;73.45;98904.88;5069201;28;20033;-69
2024/01/07 06:44:40;;;;;;;0.20;0.00;;;;;;;9.27;77.42;98905.03;5068218;28;20319;-69
2024/01/07 06:47:06;;;;;;;0.00;0.00;;;;;;;9.11;77.45;98912.94;5068063;28;20047;-69
2024/01/07 06:49:31;;;;;;;0.00;0.00;;;;;;;9.03;82.43;98915.59;5065523;28;20946;-69
2024/01/07 06:51:56;;;;;;;0.00;0.00;;;;;;;8.81;85.01;98920.59;5067153;28;20029;-69
2024/01/07 06:54:22;;;;;;;0.43;0.00;;;;;;;8.59;87.33;98923.94;5067182;28;20092;-69
2024/01/07 06:56:47;;;;;;;0.00;0.00;;;;;;;8.43;89.03;98930.03;5069290;28;20043;-69
2024/01/07 06:59:13;;;;;;;3.50;0.00;;;;;;;8.38;83.12;98947.09;5065587;28;20079;-69
2024/01/07 07:01:38;;;;;;;0.00;0.00;;;;;;;8.87;77.89;98924.31;5067110;28;20074;-69
2024/01/07 07:04:04;;;;;;;0.00;0.00;;;;;;;9.26;74.84;98938.03;5068419;28;20032;-69
2024/01/07 07:06:29;;;;;;;0.85;0.00;;;;;;;9.48;73.12;98936.38;5070395;28;20512;-69
2024/01/07 07:08:55;;;;;;;0.00;0.00;;;;;;;9.52;71.63;98931.63;5076544;28;20029;-69
2024/01/07 07:11:20;;;;;;;0.00;0.00;;;;;;;9.46;72.02;98933.16;5072406;28;20502;-69
2024/01/07 07:13:46;;;;;;;0.10;0.00;;;;;;;9.41;72.10;98934.69;5071766;28;21530;-69
2024/01/07 07:16:12;;;;;;;0.10;0.00;;;;;;;9.29;74.00;98942.06;5069933;28;20134;-69
2024/01/07 07:18:37;;;;;;;0.00;0.00;;;;;;;9.24;71.83;98939.16;5071117;28;20028;-69
2024/01/07 07:21:03;;;;;;;0.10;0.00;;;;;;;9.28;73.78;98941.25;5071978;28;20024;-69
2024/01/07 07:23:28;;;;;;;0.00;0.00;;;;;;;9.27;70.78;98944.84;5069896;28;20048;-69
2024/01/07 07:25:54;;;;;;;0.05;0.00;;;;;;;9.35;73.53;98943.97;5072156;28;20097;-69
2024/01/07 07:28:19;;;;;;;0.00;0.00;;;;;;;9.35;74.47;98948.38;5069800;28;20079;-69
2024/01/07 07:30:45;;;;;;;0.00;0.00;;;;;;;9.47;71.63;98945.16;5070047;28;20043;-69
2024/01/07 07:33:10;;;;;;;0.00;0.00;;;;;;;9.60;69.97;98949.78;5068737;28;20052;-69
2024/01/07 07:35:38;;;;;;;0.00;0.00;;;;;;;9.56;72.58;98951.91;5069709;28;20029;-69
2024/01/07 07:38:04;;;;;;;0.03;0.00;;;;;;;9.60;71.94;98937.59;5069369;28;20090;-69
2024/01/07 07:40:30;;;;;;;0.00;0.00;;;;;;;9.51;72.70;98948.22;5072674;28;20035;-69
2024/01/07 07:42:55;;;;;;;1.25;0.00;;;;;;;9.51;69.96;98946.44;5071877;28;20028;-69
2024/01/07 07:45:21;;;;;;;0.10;0.00;;;;;;;9.59;69.41;98948.97;5069398;28;20032;-69
2024/01/07 07:47:46;;;;;;;0.00;0.00;;;;;;;9.55;71.49;98941.69;5069095;28;20378;-69
2024/01/07 07:50:11;;;;;;;0.65;0.00;;;;;;;9.55;68.82;98949.50;5070595;28;20354;-69
2024/01/07 07:52:37;;;;;;;0.20;0.00;;;;;;;9.56;70.63;98944.13;5070204;28;20496;-70
2024/01/07 07:55:03;;;;;;;0.10;0.00;;;;;;;9.55;70.37;98946.91;5066737;28;20119;-69
2024/01/07 07:57:28;;;;;;;0.00;0.00;;;;;;;9.56;76.48;98944.13;5065713;28;20127;-69
2024/01/07 07:59:54;;;;;;;0.00;0.00;;;;;;;9.49;71.67;98943.19;5070605;28;20024;-69
2024/01/07 08:02:20;;;;;;;0.00;0.00;;;;;;;9.61;69.95;98949.59;5070687;28;20033;-69
2024/01/07 08:04:46;;;;;;;0.20;0.00;;;;;;;9.77;72.68;98948.66;5070615;28;20389;-69
2024/01/07 08:07:12;;;;;;;0.10;0.00;;;;;;;9.73;72.85;98951.78;5072198;28;20106;-69
2024/01/07 08:09:37;;;;;;;0.20;0.00;;;;;;;9.73;74.34;98944.00;5065608;28;20108;-70
2024/01/07 08:12:06;;;;;;;0.10;0.00;;;;;;;9.56;75.15;98951.91;5064407;28;20439;-69
2024/01/07 08:14:32;;;;;;;0.10;0.00;;;;;;;9.53;75.80;98948.84;5067064;28;20077;-70
2024/01/07 08:16:59;;;;;;;0.10;0.00;;;;;;;9.50;76.27;98949.22;5070792;28;20028;-69
2024/01/07 08:19:24;;;;;;;1.55;0.00;;;;;;;9.68;75.66;98957.53;5070822;28;20197;-69
2024/01/07 08:21:50;;;;;;;0.17;0.00;;;;;;;9.66;74.80;98967.28;5071145;28;20111;-69
2024/01/07 08:24:15;;;;;;;0.10;0.00;;;;;;;9.51;77.44;98972.44;5070501;28;20035;-69
2024/01/07 08:26:40;;;;;;;0.10;0.00;;;;;;;9.54;70.34;98964.28;5069944;28;20055;-69
2024/01/07 08:29:06;;;;;;;1.02;0.00;;;;;;;9.62;70.79;98963.41;5066910;28;20036;-69
2024/01/07 08:31:32;;;;;;;0.20;0.00;;;;;;;9.61;72.00;98965.22;5069564;28;20044;-69
2024/01/07 08:33:58;;;;;;;0.40;0.05;;;;;;;9.57;78.67;98971.75;5070618;28;20049;-69
2024/01/07 08:36:23;;;;;;;0.10;0.00;;;;;;;9.68;72.51;98967.13;5067845;28;20031;-69
2024/01/07 08:38:49;;;;;;;0.03;0.00;;;;;;;9.73;67.49;98970.00;5069054;28;20486;-69
2024/01/07 08:41:18;;;;;;;0.35;0.10;;;;;;;9.82;71.48;98968.94;5069936;28;20524;-69
2024/01/07 08:43:45;;;;;;;0.45;0.10;;;;;;;9.81;70.24;98972.53;5069808;28;20036;-69
2024/01/07 08:46:11;;;;;;;0.00;0.00;;;;;;;10.06;67.63;98979.13;5070786;28;20490;-69
2024/01/07 08:48:36;;;;;;;0.00;0.00;;;;;;;10.17;66.90;98986.50;5068606;28;20039;-69
2024/01/07 08:51:03;;;;;;;0.00;0.00;;;;;;;10.14;65.80;98979.06;5069746;28;20543;-69
2024/01/07 08:53:28;;;;;;;0.00;0.00;;;;;;;10.10;68.02;98992.59;5069629;28;20166;-69
2024/01/07 08:55:54;;;;;;;0.30;0.00;;;;;;;10.06;68.42;98992.13;5068998;28;20175;-69
2024/01/07 08:58:19;;;;;;;0.08;0.00;;;;;;;10.07;68.74;99004.16;5070456;28;20063;-69
2024/01/07 09:00:45;;;;;;;0.10;0.00;;;;;;;10.11;66.48;99002.81;5068539;28;20036;-69
2024/01/07 09:03:11;;;;;;;0.10;0.00;;;;;;;10.10;69.06;99009.00;5070666;28;20144;-69
2024/01/07 09:05:37;;;;;;;0.10;0.00;;;;;;;10.19;67.06;99002.78;5068360;28;20032;-69
2024/01/07 09:08:03;;;;;;;0.00;0.00;;;;;;;10.20;67.61;99009.59;5066382;28;20032;-69
2024/01/07 09:10:28;;;;;;;0.30;0.00;;;;;;;10.26;69.63;99015.91;5070809;28;20039;-69
2024/01/07 09:12:53;;;;;;;0.25;0.00;;;;;;;10.29;67.07;99020.75;5071433;28;20021;-69
2024/01/07 09:15:20;;;;;;;0.00;0.00;;;;;;;10.27;68.14;99020.13;5070255;28;20470;-69
2024/01/07 09:17:46;;;;;;;0.10;0.00;;;;;;;10.32;66.64;99022.19;5069605;28;20101;-69
2024/01/07 09:20:12;;;;;;;0.43;0.00;;;;;;;10.30;67.02;99027.59;5067616;28;20033;-69
2024/01/07 09:22:38;;;;;;;0.13;0.00;;;;;;;10.26;68.55;99024.53;5068317;28;20489;-69
2024/01/07 09:25:05;;;;;;;0.22;0.00;;;;;;;10.21;68.96;99021.63;5065585;28;20036;-69
2024/01/07 09:27:30;;;;;;;0.00;0.00;;;;;;;10.22;70.06;99031.06;5068051;28;20036;-69
2024/01/07 09:29:56;;;;;;;0.08;0.00;;;;;;;10.18;68.57;99042.78;5068942;28;20107;-69
2024/01/07 09:32:21;;;;;;;0.03;0.00;;;;;;;10.24;68.80;99039.50;5067242;28;20033;-69
2024/01/07 09:34:47;;;;;;;0.10;0.00;;;;;;;10.26;69.24;99047.94;5065973;28;20102;-69
2024/01/07 09:37:12;;;;;;;0.00;0.00;;;;;;;10.28;70.71;99045.97;5069645;28;20058;-69
2024/01/07 09:39:41;;;;;;;0.45;0.00;;;;;;;10.28;70.24;99051.19;5067749;28;20044;-69
2024/01/07 09:42:18;;;;;;;0.50;0.00;;;;;;;10.21;74.51;99050.28;5085091;28;20025;-69
2024/01/07 09:44:43;;;;;;;0.05;0.00;;;;;;;10.22;70.22;99049.28;5070651;28;20036;-69
2024/01/07 09:47:13;;;;;;;0.30;0.00;;;;;;;10.31;70.53;99047.41;5069038;28;20055;-69
2024/01/07 09:49:40;;;;;;;0.15;0.00;;;;;;;10.32;72.96;99056.84;5069256;28;20028;-69
2024/01/07 09:52:05;;;;;;;0.10;0.00;;;;;;;10.37;73.36;99051.91;5069125;28;20020;-69
2024/01/07 09:54:32;;;;;;;0.10;0.00;;;;;;;10.36;69.63;99055.50;5061357;28;20029;-69
2024/01/07 09:57:02;;;;;;;1.75;0.05;;;;;;;10.36;69.36;99050.31;5067356;28;20028;-69
2024/01/07 09:59:31;;;;;;;0.10;0.00;;;;;;;10.48;66.75;99061.06;5067102;28;20532;-69
2024/01/07 10:01:57;;;;;;;0.20;0.00;;;;;;;10.52;71.51;99057.13;5066146;28;20093;-69
2024/01/07 10:04:30;;;;;;;0.13;0.00;;;;;;;10.41;72.77;99058.38;5063741;28;20385;-69
2024/01/07 10:06:56;;;;;;;0.10;0.00;;;;;;;10.42;74.74;99059.97;5069680;28;20024;-70
2024/01/07 10:09:29;;;;;;;1.75;0.03;;;;;;;10.39;72.70;99070.78;5065176;28;20037;-70
2024/01/07 10:11:55;;;;;;;0.30;0.00;;;;;;;10.36;75.75;99058.13;5060839;28;20488;-69
2024/01/07 10:14:25;;;;;;;0.08;0.00;;;;;;;10.34;78.20;99064.47;5064986;28;20033;-69
2024/01/07 10:16:51;;;;;;;0.25;0.00;;;;;;;10.35;68.61;99069.50;5065032;28;20032;-69
2024/01/07 10:19:24;;;;;;;0.03;0.00;;;;;;;10.52;68.07;99059.72;5068271;28;20456;-69
2024/01/07 10:22:03;;;;;;;0.03;0.00;;;;;;;10.52;68.90;99062.34;5062658;28;20029;-69
2024/01/07 10:24:38;;;;;;;0.10;0.00;;;;;;;10.56;67.63;99067.00;5055391;28;20033;-70
2024/01/07 10:27:04;;;;;;;0.00;0.00;;;;;;;10.59;68.38;99055.44;5056216;28;20112;-69
2024/01/07 10:29:30;;;;;;;0.50;0.00;;;;;;;10.62;70.20;99065.50;5063335;28;20494;-69
2024/01/07 10:31:57;;;;;;;0.13;0.00;;;;;;;10.60;73.27;99073.47;5057628;28;20029;-69
2024/01/07 10:34:24;;;;;;;0.08;0.00;;;;;;;10.58;63.86;99066.84;5065237;28;20493;-69
2024/01/07 10:36:54;;;;;;;0.30;0.10;;;;;;;10.62;65.40;99076.72;5067611;28;20569;-69
2024/01/07 10:39:20;;;;;;;0.28;0.00;;;;;;;10.61;73.47;99074.28;5068437;28;20035;-69
2024/01/07 10:41:47;;;;;;;0.20;0.00;;;;;;;10.53;74.18;99066.56;5067071;28;20021;-69
2024/01/07 10:44:13;;;;;;;0.20;0.00;;;;;;;10.56;73.83;99071.41;5071875;28;20071;-69
2024/01/07 10:46:40;;;;;;;1.13;0.10;;;;;;;10.62;71.02;99074.13;5070104;28;20060;-69
2024/01/07 10:49:18;;;;;;;3.03;0.20;;;;;;;10.74;73.46;99076.28;5071824;28;20094;-69
2024/01/07 10:51:45;;;;;;;0.60;0.10;;;;;;;10.77;73.03;99084.56;5070751;28;20529;-69
2024/01/07 10:54:17;;;;;;;0.52;0.10;;;;;;;10.77;75.05;99081.13;5086727;28;20044;-69
2024/01/07 10:56:48;;;;;;;1.38;0.20;;;;;;;10.73;75.90;99080.69;5069710;28;20028;-69
2024/01/07 10:59:16;;;;;;;0.28;0.03;;;;;;;10.77;78.25;99083.75;5069561;28;20072;-69
2024/01/07 11:01:43;;;;;;;0.63;0.13;;;;;;;10.75;79.58;99086.53;5070069;28;20059;-69
2024/01/07 11:04:22;;;;;;;0.63;0.10;;;;;;;10.67;80.79;99083.19;5072106;28;20484;-69
2024/01/07 11:07:08;;;;;;;0.80;0.20;;;;;;;10.48;79.94;99080.09;5069647;28;20029;-70
2024/01/07 11:09:44;;;;;;;0.98;0.30;;;;;;;10.47;82.62;99082.88;5072472;28;20115;-69
2024/01/07 11:12:11;;;;;;;0.90;0.20;;;;;;;10.49;82.90;99070.50;5071734;28;20050;-69
2024/01/07 11:14:39;;;;;;;0.95;0.20;;;;;;;10.47;83.37;99069.88;5069524;28;20482;-67
2024/01/07 11:17:05;;;;;;;0.70;0.20;;;;;;;10.41;81.60;99075.78;5070275;28;20040;-69
2024/01/07 11:19:31;;;;;;;2.63;0.30;;;;;;;10.38;83.02;99076.97;5068702;28;20055;-69
2024/01/07 11:22:24;;;;;;;5.82;0.55;;;;;;;10.35;79.00;99071.31;5069386;28;20025;-69
2024/01/07 11:24:51;;;;;;;4.45;0.98;;;;;;;10.38;83.47;99069.16;5069064;28;20029;-69
2024/01/07 11:27:17;;;;;;;1.23;0.30;;;;;;;10.35;81.65;99071.31;5072807;28;20081;-69
2024/01/07 11:29:43;;;;;;;2.03;0.30;;;;;;;10.35;80.82;99072.13;5070104;28;20048;-69
2024/01/07 11:32:12;;;;;;;1.27;0.13;;;;;;;10.34;81.30;99070.50;5068705;28;20063;-69
2024/01/07 11:34:49;;;;;;;0.65;0.20;;;;;;;10.30;78.92;99069.22;5070607;28;20166;-69